createdAt,value
2022-12-25T00:01:07.553Z,3.97
2022-12-25T00:03:48.830Z,3.95
2022-12-25T00:06:19.007Z,3.93
2022-12-25T00:08:47.889Z,3.96
2022-12-25T00:11:19.040Z,3.95
2022-12-25T00:13:48.954Z,3.90
2022-12-25T00:16:20.258Z,3.88
2022-12-25T00:18:50.602Z,3.84
2022-12-25T00:21:21.156Z,3.81
2022-12-25T00:23:54.450Z,3.78
2022-12-25T00:26:24.754Z,3.77
2022-12-25T00:28:54.601Z,3.76
2022-12-25T00:31:24.965Z,3.74
2022-12-25T00:33:54.005Z,3.74
2022-12-25T00:36:23.917Z,3.75
2022-12-25T00:38:52.918Z,3.75
2022-12-25T00:41:37.586Z,3.73
2022-12-25T00:44:06.673Z,3.72
2022-12-25T00:46:35.815Z,3.70
2022-12-25T00:49:04.814Z,3.71
2022-12-25T00:51:33.752Z,3.72
2022-12-25T00:54:02.819Z,3.71
2022-12-25T00:56:31.677Z,3.72
2022-12-25T00:59:00.524Z,3.72
2022-12-25T01:01:29.528Z,3.73
2022-12-25T01:03:59.747Z,3.73
2022-12-25T01:06:28.614Z,3.76
2022-12-25T01:09:16.492Z,3.75
2022-12-25T01:11:45.656Z,3.80
2022-12-25T01:14:14.863Z,3.82
2022-12-25T01:16:43.995Z,3.84
2022-12-25T01:19:12.996Z,3.84
2022-12-25T01:21:41.851Z,3.86
2022-12-25T01:24:10.723Z,3.87
2022-12-25T01:26:39.630Z,3.87
2022-12-25T01:29:08.658Z,3.88
2022-12-25T01:31:37.565Z,3.88
2022-12-25T01:34:06.402Z,3.90
2022-12-25T01:36:35.243Z,3.92
2022-12-25T01:39:04.937Z,3.92
2022-12-25T01:41:34.297Z,3.91
2022-12-25T01:44:06.877Z,3.88
2022-12-25T01:46:36.297Z,3.85
2022-12-25T01:49:08.031Z,3.84
2022-12-25T01:51:39.907Z,3.82
2022-12-25T01:54:12.896Z,3.81
2022-12-25T01:56:43.820Z,3.80
2022-12-25T01:59:16.909Z,3.79
2022-12-25T02:01:46.889Z,3.77
2022-12-25T02:04:37.944Z,3.74
2022-12-25T02:07:09.695Z,3.70
2022-12-25T02:09:38.621Z,3.67
2022-12-25T02:12:12.302Z,3.66
2022-12-25T02:14:41.283Z,3.59
2022-12-25T02:17:19.953Z,3.55
2022-12-25T02:20:13.574Z,3.58
2022-12-25T02:22:56.942Z,3.61
2022-12-25T02:25:43.092Z,3.61
2022-12-25T02:28:19.871Z,3.58
2022-12-25T02:30:56.303Z,3.57
2022-12-25T02:33:50.201Z,3.54
2022-12-25T02:36:23.245Z,3.52
2022-12-25T02:39:16.774Z,3.50
2022-12-25T02:41:48.127Z,3.45
2022-12-25T02:44:39.087Z,3.43
2022-12-25T02:47:28.468Z,3.40
2022-12-25T02:50:17.252Z,3.39
2022-12-25T02:53:05.911Z,3.38
2022-12-25T02:56:00.571Z,3.38
2022-12-25T02:58:48.853Z,3.37
2022-12-25T03:01:41.512Z,3.33
2022-12-25T03:04:32.927Z,3.29
2022-12-25T03:07:07.989Z,3.25
2022-12-25T03:09:58.729Z,3.22
2022-12-25T03:12:38.305Z,3.19
2022-12-25T03:15:28.471Z,3.16
2022-12-25T03:17:59.220Z,3.13
2022-12-25T03:20:46.910Z,3.12
2022-12-25T03:23:38.401Z,3.11
2022-12-25T03:26:26.763Z,3.10
2022-12-25T03:28:55.605Z,3.05
2022-12-25T03:31:32.680Z,3.01
2022-12-25T03:34:31.451Z,2.98
2022-12-25T03:37:29.046Z,2.97
2022-12-25T03:40:39.015Z,2.96
2022-12-25T03:43:37.595Z,2.95
2022-12-25T03:46:29.177Z,2.93
2022-12-25T03:49:23.710Z,2.90
2022-12-25T03:52:12.633Z,2.93
2022-12-25T03:55:02.428Z,2.97
2022-12-25T03:57:53.314Z,2.95
2022-12-25T04:00:40.578Z,2.92
2022-12-25T04:03:27.946Z,2.97
2022-12-25T04:06:15.092Z,2.98
2022-12-25T04:09:02.230Z,3.08
2022-12-25T04:11:49.357Z,3.04
2022-12-25T04:14:36.644Z,3.09
2022-12-25T04:17:23.850Z,3.08
2022-12-25T04:20:11.166Z,3.08
2022-12-25T04:22:58.658Z,3.07
2022-12-25T04:25:45.717Z,3.07
2022-12-25T04:28:32.902Z,3.09
2022-12-25T04:31:20.382Z,3.12
2022-12-25T04:34:07.541Z,3.15
2022-12-25T04:36:36.394Z,3.16
2022-12-25T04:39:05.377Z,3.15
2022-12-25T04:41:34.355Z,3.14
2022-12-25T04:44:03.331Z,3.12
2022-12-25T04:46:32.329Z,3.13
2022-12-25T04:49:01.278Z,3.14
2022-12-25T04:51:30.277Z,3.13
2022-12-25T04:53:59.146Z,3.17
2022-12-25T04:56:28.334Z,3.21
2022-12-25T04:58:57.390Z,3.25
2022-12-25T05:01:26.381Z,3.22
2022-12-25T05:03:55.381Z,3.20
2022-12-25T05:06:24.306Z,3.16
2022-12-25T05:08:53.217Z,3.10
2022-12-25T05:11:22.445Z,3.08
2022-12-25T05:13:51.434Z,3.06
2022-12-25T05:16:21.294Z,2.99
2022-12-25T05:18:51.238Z,3.01
2022-12-25T05:21:20.667Z,2.99
2022-12-25T05:23:51.490Z,2.97
2022-12-25T05:26:22.523Z,2.93
2022-12-25T05:28:52.028Z,2.89
2022-12-25T05:31:21.149Z,2.89
2022-12-25T05:33:51.194Z,2.89
2022-12-25T05:36:20.239Z,2.87
2022-12-25T05:38:50.038Z,2.86
2022-12-25T05:41:19.553Z,2.85
2022-12-25T05:43:48.382Z,2.88
2022-12-25T05:46:17.367Z,2.91
2022-12-25T05:48:46.207Z,2.92
2022-12-25T05:51:15.622Z,2.90
2022-12-25T05:53:44.695Z,2.90
2022-12-25T05:56:13.692Z,2.93
2022-12-25T05:58:42.624Z,2.98
2022-12-25T06:01:13.456Z,3.03
2022-12-25T06:03:42.547Z,3.08
2022-12-25T06:06:12.240Z,3.12
2022-12-25T06:08:41.758Z,3.14
2022-12-25T06:11:12.353Z,3.19
2022-12-25T06:13:41.680Z,3.21
2022-12-25T06:16:12.181Z,3.21
2022-12-25T06:18:43.596Z,3.20
2022-12-25T06:21:14.586Z,3.21
2022-12-25T06:23:44.037Z,3.21
2022-12-25T06:26:15.250Z,3.22
2022-12-25T06:28:44.224Z,3.23
2022-12-25T06:31:16.195Z,3.21
2022-12-25T06:33:45.748Z,3.23
2022-12-25T06:36:16.601Z,3.26
2022-12-25T06:38:45.893Z,3.30
2022-12-25T06:41:17.191Z,3.33
2022-12-25T06:43:49.160Z,3.37
2022-12-25T06:46:18.728Z,3.42
2022-12-25T06:48:49.005Z,3.47
2022-12-25T06:51:19.295Z,3.51
2022-12-25T06:53:48.316Z,3.59
2022-12-25T06:56:20.673Z,3.64
2022-12-25T06:58:51.054Z,3.69
2022-12-25T07:01:23.503Z,3.75
2022-12-25T07:03:55.437Z,3.80
2022-12-25T07:06:24.410Z,3.83
2022-12-25T07:08:53.618Z,3.87
2022-12-25T07:11:23.256Z,3.96
2022-12-25T07:13:52.123Z,4.02
2022-12-25T07:16:21.499Z,4.08
2022-12-25T07:18:50.512Z,4.17
2022-12-25T07:21:21.250Z,4.24
2022-12-25T07:23:50.978Z,4.35
2022-12-25T07:26:20.466Z,4.48
2022-12-25T07:28:49.318Z,4.64
2022-12-25T07:31:19.075Z,4.81
2022-12-25T07:33:48.157Z,5.00
2022-12-25T07:36:17.006Z,5.20
2022-12-25T07:38:49.633Z,5.40
2022-12-25T07:41:18.640Z,5.63
2022-12-25T07:43:51.303Z,5.82
2022-12-25T07:46:21.338Z,6.02
2022-12-25T07:48:51.213Z,6.29
2022-12-25T07:51:20.146Z,6.60
2022-12-25T07:53:49.151Z,6.84
2022-12-25T07:56:21.129Z,7.05
2022-12-25T07:58:51.099Z,7.21
2022-12-25T08:01:22.519Z,7.38
2022-12-25T08:03:53.052Z,7.56
2022-12-25T08:06:26.268Z,7.66
2022-12-25T08:08:55.282Z,7.64
2022-12-25T08:11:24.144Z,7.63
2022-12-25T08:13:52.987Z,7.63
2022-12-25T08:16:22.233Z,7.60
2022-12-25T08:18:51.198Z,7.65
2022-12-25T08:21:20.290Z,7.71
2022-12-25T08:23:49.271Z,7.79
2022-12-25T08:26:19.931Z,7.83
2022-12-25T08:28:49.759Z,7.95
2022-12-25T08:31:21.245Z,8.17
2022-12-25T08:33:53.059Z,8.38
2022-12-25T08:36:22.211Z,8.62
2022-12-25T08:38:53.478Z,8.90
2022-12-25T08:41:24.465Z,9.22
2022-12-25T08:43:53.451Z,9.54
2022-12-25T08:46:22.574Z,9.71
2022-12-25T08:48:51.525Z,9.87
2022-12-25T08:51:22.467Z,10.10
2022-12-25T08:53:52.920Z,10.35
2022-12-25T08:56:21.965Z,10.55
2022-12-25T08:58:50.822Z,10.70
2022-12-25T09:01:19.803Z,10.89
2022-12-25T09:03:48.731Z,11.00
2022-12-25T09:06:17.783Z,10.87
2022-12-25T09:08:49.532Z,10.68
2022-12-25T09:11:20.100Z,10.73
2022-12-25T09:13:49.432Z,10.98
2022-12-25T09:16:20.986Z,11.13
2022-12-25T09:18:50.720Z,11.21
2022-12-25T09:21:20.194Z,11.43
2022-12-25T09:23:49.384Z,11.63
2022-12-25T09:26:19.690Z,11.79
2022-12-25T09:28:51.771Z,11.87
2022-12-25T09:31:22.925Z,11.94
2022-12-25T09:33:55.517Z,11.98
2022-12-25T09:36:25.111Z,12.07
2022-12-25T09:38:54.236Z,12.11
2022-12-25T09:41:29.831Z,12.17
2022-12-25T09:44:03.783Z,12.23
2022-12-25T09:46:41.069Z,12.25
2022-12-25T09:49:19.622Z,12.24
2022-12-25T09:51:53.216Z,12.26
2022-12-25T09:54:39.858Z,12.30
2022-12-25T09:57:12.165Z,12.36
2022-12-25T09:59:43.538Z,12.46
2022-12-25T10:02:42.815Z,12.64
2022-12-25T10:05:35.710Z,12.77
2022-12-25T10:08:16.118Z,12.84
2022-12-25T10:10:58.660Z,12.89
2022-12-25T10:13:55.383Z,12.87
2022-12-25T10:16:26.101Z,12.96
2022-12-25T10:19:09.525Z,13.03
2022-12-25T10:21:39.331Z,13.18
2022-12-25T10:24:20.608Z,13.29
2022-12-25T10:26:51.158Z,13.40
2022-12-25T10:29:20.656Z,13.42
2022-12-25T10:31:54.748Z,13.40
2022-12-25T10:34:24.606Z,13.53
2022-12-25T10:36:53.488Z,13.68
2022-12-25T10:39:25.049Z,13.84
2022-12-25T10:42:28.573Z,13.93
2022-12-25T10:44:59.885Z,13.94
2022-12-25T10:47:31.768Z,13.91
2022-12-25T10:50:01.872Z,13.85
2022-12-25T10:52:30.831Z,13.83
2022-12-25T10:55:10.086Z,13.92
2022-12-25T10:57:46.051Z,14.01
2022-12-25T11:00:23.478Z,14.07
2022-12-25T11:02:52.780Z,14.11
2022-12-25T11:05:28.119Z,14.16
2022-12-25T11:07:59.502Z,14.16
2022-12-25T11:10:30.653Z,14.19
2022-12-25T11:13:00.964Z,14.23
2022-12-25T11:15:37.673Z,14.26
2022-12-25T11:18:19.738Z,14.24
2022-12-25T11:20:54.124Z,14.22
2022-12-25T11:23:25.192Z,14.25
2022-12-25T11:25:58.605Z,14.31
2022-12-25T11:28:29.491Z,14.24
2022-12-25T11:31:01.085Z,14.13
2022-12-25T11:33:35.467Z,14.03
2022-12-25T11:36:13.669Z,13.95
2022-12-25T11:38:42.582Z,13.89
2022-12-25T11:41:12.850Z,13.85
2022-12-25T11:43:46.993Z,13.84
2022-12-25T11:46:20.513Z,13.82
2022-12-25T11:48:55.522Z,13.76
2022-12-25T11:51:28.938Z,13.72
2022-12-25T11:54:05.593Z,13.66
2022-12-25T11:56:34.533Z,13.60
2022-12-25T11:59:07.286Z,13.56
2022-12-25T12:01:42.909Z,13.52
2022-12-25T12:04:16.303Z,13.47
2022-12-25T12:06:54.093Z,13.42
2022-12-25T12:09:37.233Z,13.41
2022-12-25T12:12:12.663Z,13.38
2022-12-25T12:14:49.262Z,13.36
2022-12-25T12:17:19.583Z,13.33
2022-12-25T12:19:48.475Z,13.31
2022-12-25T12:22:21.556Z,13.29
2022-12-25T12:24:56.179Z,13.28
2022-12-25T12:27:31.851Z,13.27
2022-12-25T12:30:01.423Z,13.27
2022-12-25T12:32:43.066Z,13.27
2022-12-25T12:35:19.834Z,13.27
2022-12-25T12:37:52.979Z,13.27
2022-12-25T12:40:32.581Z,13.23
2022-12-25T12:43:02.228Z,13.25
2022-12-25T12:45:34.683Z,13.17
2022-12-25T12:48:15.483Z,13.19
2022-12-25T12:50:44.449Z,13.15
2022-12-25T12:53:29.968Z,13.12
2022-12-25T12:56:10.353Z,13.07
2022-12-25T12:58:44.848Z,13.02
2022-12-25T13:01:29.962Z,12.96
2022-12-25T13:04:14.559Z,12.91
2022-12-25T13:06:52.260Z,12.89
2022-12-25T13:09:35.662Z,12.87
2022-12-25T13:12:08.611Z,12.83
2022-12-25T13:14:37.748Z,12.79
2022-12-25T13:17:08.545Z,12.76
2022-12-25T13:19:42.209Z,12.73
2022-12-25T13:22:24.356Z,12.70
2022-12-25T13:24:58.549Z,12.68
2022-12-25T13:27:30.492Z,12.65
2022-12-25T13:29:59.867Z,12.63
2022-12-25T13:32:31.868Z,12.60
2022-12-25T13:35:01.305Z,12.57
2022-12-25T13:37:31.600Z,12.55
2022-12-25T13:40:03.793Z,12.52
2022-12-25T13:42:35.624Z,12.50
2022-12-25T13:45:18.543Z,12.47
2022-12-25T13:47:53.071Z,12.45
2022-12-25T13:50:28.087Z,12.42
2022-12-25T13:53:09.679Z,12.40
2022-12-25T13:55:40.005Z,12.38
2022-12-25T13:58:22.947Z,12.36
2022-12-25T14:00:54.029Z,12.34
2022-12-25T14:03:33.301Z,12.31
2022-12-25T14:06:04.477Z,12.29
2022-12-25T14:08:35.722Z,12.26
2022-12-25T14:11:06.131Z,12.25
2022-12-25T14:13:40.129Z,12.22
2022-12-25T14:16:10.180Z,12.20
2022-12-25T14:18:49.621Z,12.19
2022-12-25T14:21:25.523Z,12.16
2022-12-25T14:23:53.464Z,12.14
2022-12-25T14:26:24.726Z,12.05
2022-12-25T14:28:57.511Z,12.07
2022-12-25T14:31:29.794Z,12.04
2022-12-25T14:34:00.427Z,12.00
2022-12-25T14:36:31.005Z,11.97
2022-12-25T14:39:02.801Z,11.91
2022-12-25T14:41:37.367Z,11.86
2022-12-25T14:44:21.294Z,11.82
2022-12-25T14:46:50.153Z,11.76
2022-12-25T14:49:24.812Z,11.67
2022-12-25T14:51:53.747Z,11.58
2022-12-25T14:54:23.568Z,11.52
2022-12-25T14:56:55.505Z,11.50
2022-12-25T14:59:26.754Z,11.42
2022-12-25T15:01:58.447Z,11.34
2022-12-25T15:04:28.640Z,11.30
2022-12-25T15:06:59.837Z,11.28
2022-12-25T15:09:30.217Z,11.29
2022-12-25T15:11:59.478Z,11.27
2022-12-25T15:14:29.577Z,11.21
2022-12-25T15:17:00.735Z,11.13
2022-12-25T15:19:37.716Z,11.06
2022-12-25T15:22:09.469Z,11.03
2022-12-25T15:24:38.338Z,10.98
2022-12-25T15:27:15.431Z,10.92
2022-12-25T15:30:09.253Z,10.90
2022-12-25T15:32:33.825Z,10.87
2022-12-25T15:35:02.695Z,10.92
2022-12-25T15:37:31.643Z,10.96
2022-12-25T15:40:00.522Z,11.01
2022-12-25T15:42:29.464Z,11.04
2022-12-25T15:44:58.289Z,11.03
2022-12-25T15:47:27.198Z,11.02
2022-12-25T15:49:56.113Z,10.98
2022-12-25T15:52:24.945Z,10.96
2022-12-25T15:54:53.835Z,10.95
2022-12-25T15:57:23.738Z,10.94
2022-12-25T15:59:52.701Z,10.94
2022-12-25T16:02:22.055Z,10.92
2022-12-25T16:04:53.886Z,10.89
2022-12-25T16:07:25.252Z,10.88
2022-12-25T16:09:54.077Z,10.86
2022-12-25T16:12:22.968Z,10.78
2022-12-25T16:14:51.884Z,10.70
2022-12-25T16:17:20.790Z,10.66
2022-12-25T16:19:49.609Z,10.62
2022-12-25T16:22:22.230Z,10.57
2022-12-25T16:24:51.174Z,10.47
2022-12-25T16:27:20.113Z,10.36
2022-12-25T16:29:48.934Z,10.24
2022-12-25T16:32:18.058Z,10.17
2022-12-25T16:34:49.324Z,10.07
2022-12-25T16:37:18.257Z,9.99
2022-12-25T16:39:47.155Z,9.91
2022-12-25T16:42:16.050Z,9.88
2022-12-25T16:44:45.092Z,9.86
2022-12-25T16:47:14.022Z,9.83
2022-12-25T16:49:43.464Z,9.79
2022-12-25T16:52:12.293Z,9.78
2022-12-25T16:54:41.190Z,9.74
2022-12-25T16:57:10.009Z,9.71
2022-12-25T16:59:39.061Z,9.71
2022-12-25T17:02:09.714Z,9.72
2022-12-25T17:04:38.910Z,9.72
2022-12-25T17:07:07.802Z,9.72
2022-12-25T17:09:43.726Z,9.71
2022-12-25T17:12:13.499Z,9.69
2022-12-25T17:14:42.612Z,9.67
2022-12-25T17:17:11.465Z,9.65
2022-12-25T17:19:41.391Z,9.63
2022-12-25T17:22:10.436Z,9.60
2022-12-25T17:24:40.939Z,9.54
2022-12-25T17:27:10.829Z,9.44
2022-12-25T17:29:39.780Z,9.35
2022-12-25T17:32:10.165Z,9.26
2022-12-25T17:34:39.472Z,9.18
2022-12-25T17:37:09.017Z,9.08
2022-12-25T17:39:38.987Z,9.00
2022-12-25T17:42:07.800Z,8.91
2022-12-25T17:44:36.650Z,8.79
2022-12-25T17:47:05.774Z,8.69
2022-12-25T17:49:35.283Z,8.59
2022-12-25T17:52:04.338Z,8.53
2022-12-25T17:54:33.589Z,8.43
2022-12-25T17:57:02.863Z,8.35
2022-12-25T17:59:31.817Z,8.26
2022-12-25T18:02:00.786Z,8.15
2022-12-25T18:04:29.880Z,8.02
2022-12-25T18:06:58.838Z,7.93
2022-12-25T18:09:27.657Z,7.87
2022-12-25T18:11:56.998Z,7.81
2022-12-25T18:14:25.846Z,7.76
2022-12-25T18:16:54.861Z,7.71
2022-12-25T18:19:23.707Z,7.62
2022-12-25T18:21:52.516Z,7.61
2022-12-25T18:24:21.436Z,7.57
2022-12-25T18:26:50.339Z,7.51
2022-12-25T18:29:19.196Z,7.44
2022-12-25T18:31:48.330Z,7.37
2022-12-25T18:34:17.529Z,7.30
2022-12-25T18:36:46.420Z,7.21
2022-12-25T18:39:15.369Z,7.15
2022-12-25T18:41:58.765Z,7.11
2022-12-25T18:44:29.000Z,7.05
2022-12-25T18:46:57.849Z,6.96
2022-12-25T18:49:26.988Z,6.89
2022-12-25T18:52:47.928Z,6.81
2022-12-25T18:54:44.940Z,6.75
2022-12-25T18:57:14.005Z,6.71
2022-12-25T18:59:42.832Z,6.68
2022-12-25T19:02:12.942Z,6.65
2022-12-25T19:04:42.948Z,6.61
2022-12-25T19:07:12.354Z,6.55
2022-12-25T19:09:41.332Z,6.51
2022-12-25T19:12:10.294Z,6.46
2022-12-25T19:14:47.011Z,6.41
2022-12-25T19:17:17.937Z,6.37
2022-12-25T19:19:47.304Z,6.33
2022-12-25T19:22:16.712Z,6.31
2022-12-25T19:24:45.810Z,6.29
2022-12-25T19:27:14.649Z,6.27
2022-12-25T19:29:43.493Z,6.21
2022-12-25T19:32:12.519Z,6.16
2022-12-25T19:34:41.374Z,6.13
2022-12-25T19:37:10.273Z,6.09
2022-12-25T19:39:45.335Z,6.05
2022-12-25T19:42:15.965Z,6.01
2022-12-25T19:44:45.115Z,5.95
2022-12-25T19:47:14.001Z,5.90
2022-12-25T19:49:43.938Z,5.85
2022-12-25T19:52:14.523Z,5.81
2022-12-25T19:54:43.399Z,5.77
2022-12-25T19:57:12.265Z,5.75
2022-12-25T19:59:41.347Z,5.72
2022-12-25T20:02:11.329Z,5.69
2022-12-25T20:04:40.494Z,5.64
2022-12-25T20:07:09.319Z,5.60
2022-12-25T20:09:38.287Z,5.55
2022-12-25T20:12:09.760Z,5.51
2022-12-25T20:14:38.606Z,5.45
2022-12-25T20:17:13.657Z,5.41
2022-12-25T20:19:44.754Z,5.38
2022-12-25T20:22:13.558Z,5.37
2022-12-25T20:24:42.577Z,5.37
2022-12-25T20:27:11.419Z,5.36
2022-12-25T20:29:40.217Z,5.34
2022-12-25T20:32:09.305Z,5.27
2022-12-25T20:34:38.315Z,5.21
2022-12-25T20:37:07.135Z,5.16
2022-12-25T20:39:36.041Z,5.09
2022-12-25T20:42:05.620Z,5.03
2022-12-25T20:44:34.601Z,5.01
2022-12-25T20:47:03.467Z,4.99
2022-12-25T20:49:34.022Z,4.96
2022-12-25T20:52:05.763Z,4.95
2022-12-25T20:54:35.088Z,4.89
2022-12-25T20:57:04.129Z,4.84
2022-12-25T20:59:37.451Z,4.79
2022-12-25T21:02:09.664Z,4.77
2022-12-25T21:04:58.479Z,4.74
2022-12-25T21:07:27.393Z,4.73
2022-12-25T21:09:56.222Z,4.73
2022-12-25T21:12:25.252Z,4.73
2022-12-25T21:14:54.185Z,4.73
2022-12-25T21:17:23.023Z,4.74
2022-12-25T21:19:51.890Z,4.75
2022-12-25T21:22:20.849Z,4.76
2022-12-25T21:24:51.449Z,4.73
2022-12-25T21:27:20.279Z,4.72
2022-12-25T21:29:49.136Z,4.72
2022-12-25T21:32:36.345Z,4.71
2022-12-25T21:35:06.151Z,4.71
2022-12-25T21:37:35.091Z,4.72
2022-12-25T21:40:04.645Z,4.71
2022-12-25T21:42:33.476Z,4.70
2022-12-25T21:45:02.452Z,4.67
2022-12-25T21:48:01.582Z,4.64
2022-12-25T21:50:39.497Z,4.61
2022-12-25T21:53:08.676Z,4.54
2022-12-25T21:55:37.508Z,4.57
2022-12-25T21:58:06.343Z,4.55
2022-12-25T22:00:35.285Z,4.59
2022-12-25T22:03:04.530Z,4.74
2022-12-25T22:05:54.631Z,4.91
2022-12-25T22:08:23.443Z,5.07
2022-12-25T22:10:52.355Z,5.13
2022-12-25T22:13:39.604Z,5.28
2022-12-25T22:16:26.859Z,5.40
2022-12-25T22:19:14.035Z,5.48
2022-12-25T22:21:43.060Z,5.49
2022-12-25T22:24:11.893Z,5.55
2022-12-25T22:26:43.692Z,5.61
2022-12-25T22:29:12.498Z,5.67
2022-12-25T22:31:46.754Z,5.72
2022-12-25T22:34:16.858Z,5.78
2022-12-25T22:36:47.342Z,5.80
2022-12-25T22:39:16.474Z,5.83
2022-12-25T22:41:45.298Z,5.85
2022-12-25T22:44:17.584Z,5.87
2022-12-25T22:46:47.123Z,5.89
2022-12-25T22:49:16.320Z,5.91
2022-12-25T22:51:45.828Z,5.91
2022-12-25T22:54:15.721Z,5.91
2022-12-25T22:56:46.352Z,5.92
2022-12-25T22:59:16.908Z,5.93
2022-12-25T23:01:45.988Z,5.93
2022-12-25T23:04:14.990Z,5.95
2022-12-25T23:06:43.984Z,5.97
2022-12-25T23:09:20.553Z,6.00
2022-12-25T23:11:53.286Z,6.02
2022-12-25T23:14:40.424Z,6.04
2022-12-25T23:17:27.397Z,6.06
2022-12-25T23:20:14.754Z,6.07
2022-12-25T23:23:04.076Z,6.09
2022-12-25T23:26:00.956Z,6.06
2022-12-25T23:28:46.827Z,6.12
2022-12-25T23:31:15.896Z,6.12
2022-12-25T23:33:44.737Z,6.12
2022-12-25T23:36:13.576Z,6.13
2022-12-25T23:38:42.397Z,6.13
2022-12-25T23:41:11.377Z,6.12
2022-12-25T23:43:40.217Z,6.11
2022-12-25T23:46:09.174Z,6.10
2022-12-25T23:48:38.039Z,6.10
2022-12-25T23:51:08.155Z,6.11
2022-12-25T23:53:37.034Z,6.10
2022-12-25T23:56:06.790Z,6.10
2022-12-25T23:58:35.803Z,6.09
